Helmsley, United Kingdom
Current Conditions -  °F | °C
As of 9:50 PM on Tuesday 25 Nov 2014 (Local Time) from EGXU Reporting Station
Broken Clouds Broken Clouds  
Wind Chill: 31°   Ceiling: 3500
Heat Index: 37°   Visibility: 2.1mi
Dew Point: 37°   Wind: 8mph
Humidity: 100%   Direction: 320°NW
Pressure: 30.15"   Gusts: NA
Location:  54.25°N, 1.06°W
Report Text: EGXU 252150Z AUTO 32007KT 3400 // SCT030/// BKN035/// BKN080/// 03/03 Q1021
Loading
Personal Weather Stations






























Interactive Weather Map New forecast layout! Learn more

10-Day Weather Forecast

Advertisements
Track Severe Weather on mobile